createdAt,value
2019-02-26T00:00:54.602Z,99.70
2019-02-26T00:03:24.122Z,99.50
2019-02-26T00:05:54.849Z,99.20
2019-02-26T00:08:26.733Z,99.30
2019-02-26T00:10:57.061Z,99.50
2019-02-26T00:13:27.169Z,99.50
2019-02-26T00:15:56.565Z,99.20
2019-02-26T00:18:25.749Z,99.60
2019-02-26T00:20:56.821Z,99.60
2019-02-26T00:23:26.282Z,99.60
2019-02-26T00:25:55.983Z,99.70
2019-02-26T00:28:24.761Z,99.90
2019-02-26T00:30:55.062Z,99.80
2019-02-26T00:33:25.097Z,99.90
2019-02-26T00:35:54.968Z,99.90
2019-02-26T00:38:23.779Z,99.90
2019-02-26T00:40:52.632Z,99.90
2019-02-26T00:43:25.326Z,99.90
2019-02-26T00:45:53.448Z,99.90
2019-02-26T00:48:23.184Z,99.90
2019-02-26T00:50:52.661Z,99.90
2019-02-26T00:53:23.577Z,99.90
2019-02-26T00:55:54.302Z,99.90
2019-02-26T00:58:23.567Z,99.90
2019-02-26T01:00:52.441Z,99.90
2019-02-26T01:03:21.253Z,99.90
2019-02-26T01:05:50.118Z,99.90
2019-02-26T01:08:19.858Z,99.90
2019-02-26T01:10:48.893Z,99.90
2019-02-26T01:13:17.745Z,99.90
2019-02-26T01:15:46.532Z,99.90
2019-02-26T01:18:15.308Z,99.90
2019-02-26T01:20:44.169Z,99.90
2019-02-26T01:23:12.976Z,99.90
2019-02-26T01:25:41.769Z,99.90
2019-02-26T01:28:14.057Z,99.90
2019-02-26T01:30:41.830Z,99.90
2019-02-26T01:33:10.746Z,99.90
2019-02-26T01:35:39.755Z,99.90
2019-02-26T01:38:08.711Z,99.90
2019-02-26T01:40:41.516Z,99.90
2019-02-26T01:43:08.597Z,99.90
2019-02-26T01:45:37.473Z,99.90
2019-02-26T01:48:08.761Z,99.90
2019-02-26T01:50:37.954Z,99.90
2019-02-26T01:53:07.403Z,99.90
2019-02-26T01:55:36.563Z,99.90
2019-02-26T01:58:05.353Z,99.90
2019-02-26T02:00:34.156Z,99.90
2019-02-26T02:03:03.800Z,99.90
2019-02-26T02:05:32.702Z,99.90
2019-02-26T02:08:02.028Z,99.90
2019-02-26T02:10:30.888Z,99.90
2019-02-26T02:13:02.444Z,99.90
2019-02-26T02:15:30.447Z,99.90
2019-02-26T02:17:59.949Z,99.90
2019-02-26T02:20:29.801Z,99.90
2019-02-26T02:23:00.476Z,99.90
2019-02-26T02:25:33.167Z,99.90
2019-02-26T02:28:02.143Z,99.90
2019-02-26T02:30:32.621Z,99.90
2019-02-26T02:33:02.171Z,99.90
2019-02-26T02:35:31.366Z,99.90
2019-02-26T02:38:02.859Z,99.90
2019-02-26T02:40:30.707Z,99.90
2019-02-26T02:43:03.967Z,99.90
2019-02-26T02:45:30.136Z,99.90
2019-02-26T02:48:00.733Z,99.90
2019-02-26T02:50:29.969Z,99.90
2019-02-26T02:52:59.677Z,99.90
2019-02-26T02:55:29.374Z,99.90
2019-02-26T02:58:00.445Z,99.90
2019-02-26T03:00:49.329Z,99.90
2019-02-26T03:03:38.033Z,99.90
2019-02-26T03:06:09.704Z,99.90
2019-02-26T03:08:39.445Z,99.90
2019-02-26T03:11:09.199Z,99.90
2019-02-26T03:13:40.259Z,99.90
2019-02-26T03:16:08.853Z,99.90
2019-02-26T03:18:37.716Z,99.90
2019-02-26T03:21:06.520Z,99.90
2019-02-26T03:23:37.996Z,99.90
2019-02-26T03:26:09.985Z,99.90
2019-02-26T03:28:37.539Z,99.90
2019-02-26T03:31:07.507Z,99.90
2019-02-26T03:33:36.309Z,99.90
2019-02-26T03:36:07.616Z,99.90
2019-02-26T03:38:35.973Z,99.90
2019-02-26T03:41:05.133Z,99.90
2019-02-26T03:43:34.725Z,99.90
2019-02-26T03:46:04.418Z,99.90
2019-02-26T03:48:33.196Z,99.90
2019-02-26T03:51:01.985Z,99.90
2019-02-26T03:53:33.658Z,99.90
2019-02-26T03:56:04.232Z,99.90
2019-02-26T03:58:32.228Z,99.90
2019-02-26T04:01:04.529Z,99.90
2019-02-26T04:03:32.603Z,99.90
2019-02-26T04:06:03.115Z,99.90
2019-02-26T04:08:33.029Z,99.90
2019-02-26T04:11:02.057Z,99.90
2019-02-26T04:13:30.980Z,99.90
2019-02-26T04:16:03.854Z,99.90
2019-02-26T04:18:34.172Z,99.90
2019-02-26T04:21:05.677Z,99.90
2019-02-26T04:23:33.252Z,99.90
2019-02-26T04:26:29.051Z,99.90
2019-02-26T04:29:25.944Z,99.90
2019-02-26T04:32:23.539Z,99.90
2019-02-26T04:35:50.245Z,99.90
2019-02-26T04:38:39.871Z,99.90
2019-02-26T04:41:44.423Z,99.90
2019-02-26T04:44:34.967Z,99.90
2019-02-26T04:47:33.798Z,99.90
2019-02-26T04:50:03.874Z,99.90
2019-02-26T04:52:35.168Z,99.90
2019-02-26T04:55:03.205Z,99.90
2019-02-26T04:57:32.136Z,99.90
2019-02-26T05:00:02.422Z,99.90
2019-02-26T05:02:31.927Z,99.90
2019-02-26T05:05:00.779Z,99.90
2019-02-26T05:07:29.640Z,99.90
2019-02-26T05:09:59.384Z,99.90
2019-02-26T05:12:31.617Z,99.90
2019-02-26T05:14:59.785Z,99.90
2019-02-26T05:17:30.803Z,99.90
2019-02-26T05:19:59.433Z,99.90
2019-02-26T05:22:31.011Z,99.90
2019-02-26T05:24:59.397Z,99.90
2019-02-26T05:27:28.580Z,99.90
2019-02-26T05:29:57.344Z,99.90
2019-02-26T05:32:27.709Z,99.90
2019-02-26T05:34:56.630Z,99.90
2019-02-26T05:37:28.551Z,99.90
2019-02-26T05:39:56.240Z,99.90
2019-02-26T05:42:25.093Z,99.90
2019-02-26T05:44:56.616Z,99.90
2019-02-26T05:47:26.562Z,99.90
2019-02-26T05:49:54.953Z,99.90
2019-02-26T05:52:24.503Z,99.90
2019-02-26T05:54:54.250Z,99.90
2019-02-26T05:57:27.766Z,99.90
2019-02-26T05:59:53.865Z,99.90
2019-02-26T06:02:24.637Z,99.90
2019-02-26T06:04:53.808Z,99.90
2019-02-26T06:07:25.091Z,99.90
2019-02-26T06:09:56.142Z,99.90
2019-02-26T06:12:23.944Z,99.90
2019-02-26T06:14:54.024Z,99.90
2019-02-26T06:17:23.713Z,99.90
2019-02-26T06:19:53.828Z,99.90
2019-02-26T06:22:26.052Z,99.90
2019-02-26T06:24:57.287Z,99.90
2019-02-26T06:27:25.132Z,99.90
2019-02-26T06:29:55.500Z,99.90
2019-02-26T06:32:30.007Z,99.90
2019-02-26T06:34:56.146Z,99.90
2019-02-26T06:37:25.349Z,99.90
2019-02-26T06:39:55.690Z,99.90
2019-02-26T06:42:24.720Z,99.90
2019-02-26T06:44:53.844Z,99.90
2019-02-26T06:47:25.476Z,99.90
2019-02-26T06:49:53.489Z,99.90
2019-02-26T06:52:22.322Z,99.90
2019-02-26T06:54:57.315Z,99.90
2019-02-26T06:57:21.993Z,99.90
2019-02-26T06:59:51.528Z,99.90
2019-02-26T07:02:21.392Z,99.90
2019-02-26T07:04:50.823Z,99.90
2019-02-26T07:07:20.036Z,99.90
2019-02-26T07:09:49.912Z,99.90
2019-02-26T07:12:20.046Z,99.90
2019-02-26T07:14:51.328Z,99.90
2019-02-26T07:17:20.501Z,99.90
2019-02-26T07:19:51.231Z,99.90
2019-02-26T07:22:20.511Z,99.90
2019-02-26T07:24:52.070Z,99.90
2019-02-26T07:27:20.509Z,99.90
2019-02-26T07:29:52.497Z,99.90
2019-02-26T07:32:22.125Z,99.90
2019-02-26T07:34:52.561Z,99.90
2019-02-26T07:37:21.991Z,99.90
2019-02-26T07:39:51.571Z,99.90
2019-02-26T07:42:21.034Z,99.90
2019-02-26T07:44:50.069Z,99.90
2019-02-26T07:47:18.857Z,99.90
2019-02-26T07:49:48.057Z,99.90
2019-02-26T07:52:16.828Z,99.90
2019-02-26T07:54:47.574Z,99.90
2019-02-26T07:57:18.090Z,99.90
2019-02-26T07:59:48.259Z,99.90
2019-02-26T08:02:18.124Z,99.60
2019-02-26T08:04:47.015Z,98.90
2019-02-26T08:07:15.808Z,98.40
2019-02-26T08:09:44.953Z,97.00
2019-02-26T08:12:14.169Z,96.20
2019-02-26T08:14:45.223Z,95.70
2019-02-26T08:17:14.061Z,94.80
2019-02-26T08:19:46.630Z,94.30
2019-02-26T08:22:13.684Z,93.40
2019-02-26T08:24:42.466Z,92.70
2019-02-26T08:27:13.438Z,92.60
2019-02-26T08:29:42.498Z,92.20
2019-02-26T08:32:13.739Z,92.60
2019-02-26T08:34:42.121Z,93.30
2019-02-26T08:37:11.221Z,93.60
2019-02-26T08:39:40.019Z,93.00
2019-02-26T08:42:10.368Z,92.20
2019-02-26T08:44:39.840Z,92.20
2019-02-26T08:47:11.303Z,91.70
2019-02-26T08:49:40.679Z,91.70
2019-02-26T08:52:09.977Z,91.10
2019-02-26T08:54:38.856Z,90.80
2019-02-26T08:57:07.706Z,89.50
2019-02-26T08:59:37.209Z,88.30
2019-02-26T09:02:06.426Z,87.20
2019-02-26T09:04:37.769Z,88.60
2019-02-26T09:07:05.905Z,89.30
2019-02-26T09:09:35.077Z,87.60
2019-02-26T09:12:03.946Z,88.30
2019-02-26T09:14:37.290Z,86.90
2019-02-26T09:17:04.701Z,88.40
2019-02-26T09:19:35.497Z,87.50
2019-02-26T09:22:04.159Z,89.20
2019-02-26T09:24:33.253Z,90.00
2019-02-26T09:27:04.325Z,87.60
2019-02-26T09:29:34.339Z,89.30
2019-02-26T09:32:06.685Z,88.60
2019-02-26T09:34:34.315Z,86.90
2019-02-26T09:37:05.780Z,85.40
2019-02-26T09:39:36.539Z,84.30
2019-02-26T09:42:06.549Z,82.90
2019-02-26T09:44:36.425Z,83.40
2019-02-26T09:47:07.361Z,82.40
2019-02-26T09:49:36.013Z,81.00
2019-02-26T09:52:06.564Z,81.30
2019-02-26T09:54:40.343Z,80.10
2019-02-26T09:57:06.793Z,78.70
2019-02-26T09:59:36.709Z,80.70
2019-02-26T10:02:06.781Z,80.00
2019-02-26T10:04:36.204Z,78.40
2019-02-26T10:07:08.865Z,78.30
2019-02-26T10:09:37.395Z,77.10
2019-02-26T10:12:07.418Z,78.60
2019-02-26T10:14:38.506Z,76.40
2019-02-26T10:17:09.107Z,76.10
2019-02-26T10:19:38.718Z,77.30
2019-02-26T10:22:12.672Z,76.40
2019-02-26T10:24:40.417Z,75.50
2019-02-26T10:27:11.567Z,74.60
2019-02-26T10:29:43.003Z,75.20
2019-02-26T10:32:11.905Z,74.60
2019-02-26T10:34:41.023Z,75.10
2019-02-26T10:37:09.841Z,75.30
2019-02-26T10:39:38.802Z,73.90
2019-02-26T10:42:07.711Z,73.20
2019-02-26T10:44:36.583Z,73.50
2019-02-26T10:47:08.161Z,71.60
2019-02-26T10:49:36.519Z,70.20
2019-02-26T10:52:05.646Z,70.50
2019-02-26T10:54:39.316Z,69.20
2019-02-26T10:57:07.685Z,67.90
2019-02-26T10:59:36.107Z,69.50
2019-02-26T11:02:05.161Z,69.30
2019-02-26T11:04:35.671Z,70.00
2019-02-26T11:07:08.443Z,67.70
2019-02-26T11:09:35.344Z,67.70
2019-02-26T11:12:07.940Z,65.00
2019-02-26T11:14:36.220Z,63.50
2019-02-26T11:17:05.612Z,63.80
2019-02-26T11:19:38.296Z,64.60
2019-02-26T11:22:05.240Z,63.30
2019-02-26T11:24:36.129Z,61.40
2019-02-26T11:27:06.173Z,62.00
2019-02-26T11:29:36.378Z,62.80
2019-02-26T11:32:07.571Z,62.20
2019-02-26T11:34:38.308Z,60.40
2019-02-26T11:37:08.903Z,59.60
2019-02-26T11:39:38.080Z,60.90
2019-02-26T11:42:07.140Z,60.20
2019-02-26T11:44:36.274Z,58.90
2019-02-26T11:47:05.234Z,58.60
2019-02-26T11:49:36.728Z,57.10
2019-02-26T11:52:05.195Z,58.10
2019-02-26T11:54:37.139Z,56.50
2019-02-26T11:57:08.074Z,57.40
2019-02-26T11:59:38.084Z,54.30
2019-02-26T12:02:07.248Z,53.40
2019-02-26T12:04:36.186Z,53.30
2019-02-26T12:07:07.446Z,54.90
2019-02-26T12:09:38.527Z,54.00
2019-02-26T12:12:09.219Z,54.20
2019-02-26T12:14:40.411Z,54.30
2019-02-26T12:17:08.968Z,54.50
2019-02-26T12:19:38.269Z,53.70
2019-02-26T12:22:07.372Z,52.40
2019-02-26T12:24:36.317Z,51.80
2019-02-26T12:27:07.398Z,50.60
2019-02-26T12:29:36.808Z,49.70
2019-02-26T12:32:05.828Z,50.50
2019-02-26T12:34:35.931Z,50.00
2019-02-26T12:37:06.661Z,48.30
2019-02-26T12:39:36.740Z,47.20
2019-02-26T12:42:07.394Z,47.20
2019-02-26T12:44:39.410Z,46.40
2019-02-26T12:47:07.148Z,46.00
2019-02-26T12:49:38.385Z,45.30
2019-02-26T12:52:06.992Z,46.00
2019-02-26T12:54:37.764Z,45.20
2019-02-26T12:57:06.457Z,45.20
2019-02-26T12:59:35.245Z,43.40
2019-02-26T13:02:05.579Z,43.90
2019-02-26T13:04:37.381Z,43.50
2019-02-26T13:07:08.484Z,43.10
2019-02-26T13:09:41.390Z,42.60
2019-02-26T13:12:06.581Z,42.40
2019-02-26T13:14:35.750Z,42.00
2019-02-26T13:17:04.702Z,42.40
2019-02-26T13:19:36.820Z,41.60
2019-02-26T13:22:06.691Z,40.30
2019-02-26T13:24:34.711Z,41.10
2019-02-26T13:27:03.619Z,41.00
2019-02-26T13:29:32.423Z,40.40
2019-02-26T13:32:01.557Z,40.00
2019-02-26T13:34:30.747Z,40.10
2019-02-26T13:36:59.888Z,39.90
2019-02-26T13:39:36.834Z,39.50
2019-02-26T13:42:04.204Z,39.90
2019-02-26T13:44:30.173Z,39.10
2019-02-26T13:46:59.085Z,38.70
2019-02-26T13:49:27.985Z,39.30
2019-02-26T13:51:56.784Z,38.50
2019-02-26T13:54:25.783Z,38.40
2019-02-26T13:56:54.653Z,37.60
2019-02-26T13:59:23.453Z,37.80
2019-02-26T14:01:52.952Z,38.50
2019-02-26T14:04:22.352Z,38.80
2019-02-26T14:06:51.577Z,39.90
2019-02-26T14:09:20.749Z,39.80
2019-02-26T14:11:49.733Z,39.70
2019-02-26T14:14:18.697Z,39.60
2019-02-26T14:16:47.834Z,40.50
2019-02-26T14:19:16.640Z,40.20
2019-02-26T14:21:45.437Z,39.90
2019-02-26T14:24:14.232Z,40.30
2019-02-26T14:26:43.073Z,39.60
2019-02-26T14:29:12.176Z,39.90
2019-02-26T14:31:41.383Z,40.10
2019-02-26T14:34:11.106Z,39.70
2019-02-26T14:36:39.973Z,40.20
2019-02-26T14:39:09.779Z,39.40
2019-02-26T14:41:38.632Z,40.50
2019-02-26T14:44:07.649Z,40.60
2019-02-26T14:46:36.546Z,40.20
2019-02-26T14:49:06.016Z,39.80
2019-02-26T14:51:35.272Z,40.40
2019-02-26T14:54:06.366Z,40.10
2019-02-26T14:56:35.249Z,40.30
2019-02-26T14:59:04.374Z,39.90
2019-02-26T15:01:33.706Z,40.90
2019-02-26T15:04:02.741Z,41.30
2019-02-26T15:06:32.435Z,41.50
2019-02-26T15:09:01.327Z,41.70
2019-02-26T15:11:30.102Z,41.90
2019-02-26T15:13:58.896Z,41.80
2019-02-26T15:16:28.395Z,42.40
2019-02-26T15:18:57.196Z,42.20
2019-02-26T15:21:25.981Z,43.00
2019-02-26T15:23:54.781Z,43.50
2019-02-26T15:26:23.937Z,42.10
2019-02-26T15:28:52.756Z,42.60
2019-02-26T15:31:22.466Z,41.90
2019-02-26T15:33:51.663Z,42.40
2019-02-26T15:36:20.557Z,42.60
2019-02-26T15:38:49.766Z,42.90
2019-02-26T15:41:18.851Z,42.30
2019-02-26T15:43:47.944Z,43.30
2019-02-26T15:46:16.722Z,43.40
2019-02-26T15:48:45.840Z,43.20
2019-02-26T15:51:17.175Z,43.40
2019-02-26T15:53:47.420Z,43.30
2019-02-26T15:56:16.501Z,43.40
2019-02-26T15:58:45.656Z,43.40
2019-02-26T16:01:15.175Z,43.50
2019-02-26T16:03:44.607Z,44.40
2019-02-26T16:06:13.501Z,44.00
2019-02-26T16:08:43.381Z,44.20
2019-02-26T16:11:13.239Z,44.80
2019-02-26T16:13:42.713Z,44.70
2019-02-26T16:16:11.564Z,44.60
2019-02-26T16:18:40.376Z,44.80
2019-02-26T16:21:09.581Z,45.00
2019-02-26T16:23:38.394Z,45.20
2019-02-26T16:26:08.090Z,44.90
2019-02-26T16:28:38.205Z,45.20
2019-02-26T16:31:07.481Z,45.20
2019-02-26T16:33:36.364Z,45.40
2019-02-26T16:36:05.246Z,46.10
2019-02-26T16:38:34.298Z,46.00
2019-02-26T16:41:04.960Z,46.20
2019-02-26T16:43:33.684Z,46.20
2019-02-26T16:46:02.562Z,46.90
2019-02-26T16:48:31.805Z,46.80
2019-02-26T16:51:00.871Z,47.50
2019-02-26T16:53:33.527Z,47.80
2019-02-26T16:56:00.840Z,48.30
2019-02-26T16:58:29.977Z,48.90
2019-02-26T17:00:59.744Z,48.70
2019-02-26T17:03:28.892Z,49.10
2019-02-26T17:05:57.698Z,49.00
2019-02-26T17:08:26.593Z,49.10
2019-02-26T17:10:55.699Z,49.70
2019-02-26T17:13:24.895Z,50.20
2019-02-26T17:15:54.307Z,50.30
2019-02-26T17:18:23.218Z,50.50
2019-02-26T17:20:52.288Z,50.50
2019-02-26T17:23:21.378Z,50.50
2019-02-26T17:25:50.784Z,50.60
2019-02-26T17:28:19.844Z,51.10
2019-02-26T17:30:48.627Z,51.80
2019-02-26T17:33:17.587Z,52.00
2019-02-26T17:35:46.417Z,52.10
2019-02-26T17:38:15.475Z,52.50
2019-02-26T17:40:45.796Z,53.20
2019-02-26T17:43:14.981Z,53.60
2019-02-26T17:45:43.815Z,54.00
2019-02-26T17:48:12.948Z,54.20
2019-02-26T17:50:43.473Z,54.40
2019-02-26T17:53:12.366Z,54.50
2019-02-26T17:55:41.267Z,54.70
2019-02-26T17:58:10.814Z,54.80
2019-02-26T18:00:41.953Z,55.00
2019-02-26T18:03:11.409Z,55.10
2019-02-26T18:05:50.609Z,55.10
2019-02-26T18:08:11.141Z,55.80
2019-02-26T18:10:40.171Z,56.50
2019-02-26T18:13:09.404Z,56.70
2019-02-26T18:15:38.307Z,57.10
2019-02-26T18:18:07.172Z,57.60
2019-02-26T18:20:35.996Z,57.90
2019-02-26T18:23:05.098Z,58.10
2019-02-26T18:25:33.971Z,58.60
2019-02-26T18:28:02.757Z,59.30
2019-02-26T18:30:31.704Z,59.80
2019-02-26T18:33:00.495Z,59.60
2019-02-26T18:35:29.356Z,59.60
2019-02-26T18:37:58.224Z,59.90
2019-02-26T18:40:28.284Z,60.00
2019-02-26T18:42:57.636Z,59.90
2019-02-26T18:45:28.749Z,60.00
2019-02-26T18:47:58.022Z,60.60
2019-02-26T18:50:28.427Z,61.00
2019-02-26T18:52:58.601Z,61.40
2019-02-26T18:55:28.789Z,62.00
2019-02-26T18:57:58.588Z,62.50
2019-02-26T19:00:27.728Z,62.60
2019-02-26T19:02:57.182Z,63.20
2019-02-26T19:05:26.145Z,63.50
2019-02-26T19:07:55.013Z,62.90
2019-02-26T19:10:23.935Z,62.80
2019-02-26T19:12:53.147Z,62.90
2019-02-26T19:15:22.067Z,62.90
2019-02-26T19:17:52.003Z,63.30
2019-02-26T19:20:23.234Z,63.70
2019-02-26T19:22:52.420Z,63.80
2019-02-26T19:25:22.368Z,64.00
2019-02-26T19:27:53.128Z,64.30
2019-02-26T19:30:22.097Z,64.70
2019-02-26T19:32:51.657Z,65.10
2019-02-26T19:35:20.839Z,65.90
2019-02-26T19:37:52.733Z,66.60
2019-02-26T19:40:24.969Z,66.30
2019-02-26T19:42:54.267Z,66.10
2019-02-26T19:45:23.493Z,66.40
2019-02-26T19:47:55.798Z,66.50
2019-02-26T19:50:23.313Z,66.50
2019-02-26T19:52:56.942Z,66.70
2019-02-26T19:55:26.182Z,66.90
2019-02-26T19:57:55.042Z,68.60
2019-02-26T20:00:24.695Z,69.30
2019-02-26T20:02:54.705Z,69.50
2019-02-26T20:05:24.393Z,69.70
2019-02-26T20:07:54.411Z,69.50
2019-02-26T20:10:23.680Z,69.80
2019-02-26T20:12:54.116Z,70.10
2019-02-26T20:15:23.344Z,70.10
2019-02-26T20:17:52.841Z,70.90
2019-02-26T20:20:21.959Z,71.50
2019-02-26T20:22:51.232Z,72.00
2019-02-26T20:25:20.458Z,72.50
2019-02-26T20:27:49.401Z,73.00
2019-02-26T20:30:19.476Z,73.70
2019-02-26T20:32:48.403Z,74.00
2019-02-26T20:35:18.961Z,74.80
2019-02-26T20:37:47.730Z,75.60
2019-02-26T20:40:18.515Z,77.20
2019-02-26T20:42:47.557Z,78.40
2019-02-26T20:45:18.659Z,79.40
2019-02-26T20:47:48.430Z,80.30
2019-02-26T20:50:21.073Z,81.40
2019-02-26T20:52:48.822Z,82.00
2019-02-26T20:55:19.979Z,82.50
2019-02-26T20:57:48.970Z,82.10
2019-02-26T21:00:18.752Z,82.00
2019-02-26T21:02:47.891Z,82.70
2019-02-26T21:05:17.107Z,83.30
2019-02-26T21:07:46.071Z,84.00
2019-02-26T21:10:16.051Z,84.80
2019-02-26T21:12:45.602Z,83.90
2019-02-26T21:15:16.241Z,84.10
2019-02-26T21:17:45.318Z,84.50
2019-02-26T21:20:14.440Z,84.00
2019-02-26T21:22:43.302Z,84.50
2019-02-26T21:25:12.578Z,84.80
2019-02-26T21:27:42.129Z,86.00
2019-02-26T21:30:13.356Z,87.10
2019-02-26T21:32:42.145Z,87.70
2019-02-26T21:35:11.444Z,88.60
2019-02-26T21:37:40.321Z,89.50
2019-02-26T21:40:09.942Z,90.00
2019-02-26T21:42:38.745Z,90.40
2019-02-26T21:45:09.055Z,90.50
2019-02-26T21:47:38.664Z,90.70
2019-02-26T21:50:08.820Z,90.90
2019-02-26T21:52:41.812Z,91.00
2019-02-26T21:55:08.518Z,91.10
2019-02-26T21:57:37.393Z,91.30
2019-02-26T22:00:08.245Z,91.50
2019-02-26T22:02:37.036Z,91.60
2019-02-26T22:05:08.119Z,92.00
2019-02-26T22:07:37.068Z,92.40
2019-02-26T22:10:07.350Z,92.50
2019-02-26T22:12:36.664Z,92.60
2019-02-26T22:15:09.951Z,92.70
2019-02-26T22:17:37.023Z,92.90
2019-02-26T22:20:09.256Z,92.90
2019-02-26T22:22:37.776Z,93.00
2019-02-26T22:25:09.943Z,92.90
2019-02-26T22:27:37.694Z,93.00
2019-02-26T22:30:08.458Z,93.20
2019-02-26T22:32:38.780Z,93.50
2019-02-26T22:35:08.786Z,94.00
2019-02-26T22:37:38.997Z,94.30
2019-02-26T22:40:09.748Z,94.90
2019-02-26T22:42:38.812Z,95.40
2019-02-26T22:45:09.889Z,95.50
2019-02-26T22:47:40.597Z,95.50
2019-02-26T22:50:10.933Z,95.10
2019-02-26T22:52:40.103Z,95.00
2019-02-26T22:55:09.338Z,95.10
2019-02-26T22:57:38.142Z,95.10
2019-02-26T23:01:07.913Z,95.40
2019-02-26T23:03:37.215Z,95.60
2019-02-26T23:06:06.652Z,95.90
2019-02-26T23:08:35.536Z,96.10
2019-02-26T23:11:04.469Z,96.00
2019-02-26T23:13:33.440Z,96.30
2019-02-26T23:16:03.223Z,96.80
2019-02-26T23:18:32.425Z,97.60
2019-02-26T23:21:01.223Z,97.90
2019-02-26T23:23:30.182Z,98.10
2019-02-26T23:25:59.111Z,98.30
2019-02-26T23:28:27.973Z,98.50
2019-02-26T23:30:59.597Z,99.20
2019-02-26T23:33:27.757Z,99.60
2019-02-26T23:35:56.616Z,99.90
2019-02-26T23:38:25.477Z,99.90
2019-02-26T23:40:54.420Z,99.90
2019-02-26T23:43:23.271Z,99.90
2019-02-26T23:45:52.148Z,99.90
2019-02-26T23:48:21.224Z,99.90
2019-02-26T23:50:50.249Z,99.90
2019-02-26T23:53:19.044Z,99.90
2019-02-26T23:55:47.922Z,99.90
2019-02-26T23:58:17.172Z,99.90
